EGUB METAR and TAF | Updated Today

EGUB METAR

RAF Benson

Observation time: 38 min. ago

EGUB 251920Z 25009KT 9999 FEW030 SCT060 15/10 Q1015 NOSIG RMK BLU BLU

Need help? Read our tutorial on how to read METARs or read the parsed version below.

RAF Benson (EGUB) METAR

  • Weather conditions on Wed, 25 May 2022 19:20:00 +0000 (38 min. ago):
  • Present conditions: Dry
  • Clouds: A few at 914 meters; scattered at 1829 meters
  • Visibility: Greater than 10 km
  • Wind: 250 degrees at 9 knots
  • Temperature: 15 celsius
  • Dew point: 10 celsius
  • Pressure: 1015 millibars
  • Remarks: BLU BLU


Useful to know...

EGUB TAF

RAF Benson

TAF EGUB 251619Z 2518/2603 26012KT 9999 SCT030
Observation time: 3:39 hr. ago
Need help? Read our tutorial on how to read TAFs or read the parsed version below.

Parsed version of TAF for RAF Benson (EGUB)

  • From 25 May at 18:00 UTC, to day 26 of the month at 03:00 UTC
  • Clouds: Scattered at 914 meters
  • Visibility: Greater than 10 km
  • Wind: 260 degrees at 12